createdAt,value
2023-03-26T00:02:23.585Z,6.84
2023-03-26T00:05:25.792Z,6.73
2023-03-26T00:08:27.466Z,6.96
2023-03-26T00:11:29.661Z,6.75
2023-03-26T00:14:32.777Z,6.55
2023-03-26T00:17:34.634Z,6.32
2023-03-26T00:20:38.385Z,6.35
2023-03-26T00:23:41.624Z,6.39
2023-03-26T00:26:44.788Z,6.36
2023-03-26T00:29:48.282Z,6.34
2023-03-26T00:32:53.348Z,6.21
2023-03-26T00:35:59.097Z,6.08
2023-03-26T00:39:01.292Z,6.02
2023-03-26T00:42:07.288Z,6.01
2023-03-26T00:45:09.281Z,6.02
2023-03-26T00:48:11.680Z,6.00
2023-03-26T00:51:17.674Z,5.92
2023-03-26T00:54:19.344Z,5.83
2023-03-26T00:57:34.556Z,6.16
2023-03-26T01:00:43.205Z,5.90
2023-03-26T01:04:00.829Z,6.04
2023-03-26T01:07:22.803Z,6.22
2023-03-26T01:10:24.448Z,6.21
2023-03-26T01:13:26.131Z,6.41
2023-03-26T01:16:33.333Z,6.10
2023-03-26T01:19:56.500Z,5.93
2023-03-26T01:23:06.427Z,5.79
2023-03-26T01:26:24.803Z,5.38
2023-03-26T01:29:49.482Z,5.32
2023-03-26T01:33:16.326Z,5.65
2023-03-26T01:36:40.059Z,5.46
2023-03-26T01:39:56.982Z,5.48
2023-03-26T01:43:23.202Z,5.81
2023-03-26T01:46:27.213Z,5.68
2023-03-26T01:49:30.064Z,5.73
2023-03-26T01:52:31.800Z,5.68
2023-03-26T01:55:59.551Z,5.71
2023-03-26T01:59:08.776Z,5.30
2023-03-26T02:02:17.159Z,5.35
2023-03-26T02:05:26.479Z,5.40
2023-03-26T02:08:41.401Z,5.28
2023-03-26T02:11:45.014Z,5.42
2023-03-26T02:14:46.799Z,5.46
2023-03-26T02:17:49.744Z,5.39
2023-03-26T02:20:55.799Z,4.97
2023-03-26T02:24:03.373Z,4.96
2023-03-26T02:27:07.848Z,4.84
2023-03-26T02:30:13.476Z,4.88
2023-03-26T02:33:15.457Z,4.64
2023-03-26T02:36:18.543Z,5.07
2023-03-26T02:39:20.919Z,4.95
2023-03-26T02:42:22.691Z,5.11
2023-03-26T02:45:24.398Z,4.93
2023-03-26T02:48:26.287Z,5.13
2023-03-26T02:51:28.919Z,5.12
2023-03-26T02:54:30.551Z,5.17
2023-03-26T02:57:32.210Z,5.28
2023-03-26T03:00:35.362Z,5.14
2023-03-26T03:03:37.902Z,5.05
2023-03-26T03:06:40.565Z,5.10
2023-03-26T03:09:42.286Z,5.17
2023-03-26T03:12:43.957Z,5.10
2023-03-26T03:15:45.587Z,4.58
2023-03-26T03:18:54.547Z,4.40
2023-03-26T03:21:56.630Z,4.64
2023-03-26T03:24:59.995Z,4.43
2023-03-26T03:28:02.286Z,4.57
2023-03-26T03:31:05.295Z,4.67
2023-03-26T03:34:07.038Z,5.09
2023-03-26T03:37:08.694Z,5.11
2023-03-26T03:40:11.101Z,5.02
2023-03-26T03:43:12.776Z,5.12
2023-03-26T03:46:14.490Z,5.19
2023-03-26T03:49:16.164Z,5.22
2023-03-26T03:52:18.263Z,5.29
2023-03-26T03:55:19.921Z,5.34
2023-03-26T03:58:23.390Z,5.09
2023-03-26T04:01:25.273Z,4.57
2023-03-26T04:04:26.974Z,4.70
2023-03-26T04:07:32.929Z,4.81
2023-03-26T04:10:34.620Z,4.36
2023-03-26T04:13:36.452Z,4.56
2023-03-26T04:16:38.158Z,4.65
2023-03-26T04:19:40.591Z,4.67
2023-03-26T04:22:43.885Z,4.84
2023-03-26T04:25:49.481Z,4.58
2023-03-26T04:28:54.375Z,4.57
2023-03-26T04:32:06.432Z,4.45
2023-03-26T04:35:08.741Z,4.47
2023-03-26T04:38:11.828Z,4.44
2023-03-26T04:41:14.751Z,4.23
2023-03-26T04:44:17.185Z,4.28
2023-03-26T04:47:18.986Z,4.65
2023-03-26T04:50:21.014Z,4.66
2023-03-26T04:53:24.260Z,5.00
2023-03-26T04:56:28.899Z,5.14
2023-03-26T04:59:35.210Z,5.36
2023-03-26T05:02:40.056Z,5.54
2023-03-26T05:05:41.962Z,5.88
2023-03-26T05:08:43.594Z,5.88
2023-03-26T05:11:45.446Z,5.50
2023-03-26T05:14:47.088Z,5.61
2023-03-26T05:17:48.833Z,5.45
2023-03-26T05:20:50.756Z,5.46
2023-03-26T05:23:52.415Z,5.25
2023-03-26T05:26:54.215Z,5.48
2023-03-26T05:30:01.284Z,5.56
2023-03-26T05:33:04.482Z,5.24
2023-03-26T05:36:13.332Z,5.39
2023-03-26T05:39:15.199Z,5.49
2023-03-26T05:42:16.850Z,5.88
2023-03-26T05:45:18.533Z,6.16
2023-03-26T05:48:21.682Z,6.14
2023-03-26T05:51:23.560Z,6.07
2023-03-26T05:54:25.237Z,6.25
2023-03-26T05:57:30.194Z,6.11
2023-03-26T06:00:31.885Z,6.31
2023-03-26T06:03:38.717Z,6.51
2023-03-26T06:06:40.532Z,6.77
2023-03-26T06:09:42.384Z,6.96
2023-03-26T06:12:44.009Z,7.31
2023-03-26T06:15:45.737Z,7.87
2023-03-26T06:18:47.572Z,8.68
2023-03-26T06:22:01.788Z,9.46
2023-03-26T06:25:03.578Z,10.56
2023-03-26T06:28:06.113Z,11.80
2023-03-26T06:31:07.808Z,12.78
2023-03-26T06:34:09.581Z,14.41
2023-03-26T06:37:11.290Z,15.12
2023-03-26T06:40:14.778Z,16.51
2023-03-26T06:43:17.557Z,16.37
2023-03-26T06:46:21.248Z,17.21
2023-03-26T06:49:22.997Z,17.38
2023-03-26T06:52:24.703Z,17.67
2023-03-26T06:55:27.256Z,18.34
2023-03-26T06:58:29.758Z,18.38
2023-03-26T07:01:31.556Z,19.36
2023-03-26T07:04:33.227Z,19.52
2023-03-26T07:07:35.122Z,21.97
2023-03-26T07:10:47.592Z,23.39
2023-03-26T07:13:49.275Z,22.10
2023-03-26T07:16:51.887Z,22.21
2023-03-26T07:19:54.240Z,22.32
2023-03-26T07:22:56.560Z,23.92
2023-03-26T07:25:58.439Z,23.93
2023-03-26T07:29:07.005Z,24.71
2023-03-26T07:32:23.723Z,25.60
2023-03-26T07:35:40.563Z,24.53
2023-03-26T07:38:54.366Z,24.32
2023-03-26T07:42:01.775Z,22.55
2023-03-26T07:45:19.791Z,19.93
2023-03-26T07:48:27.429Z,16.98
2023-03-26T07:51:29.486Z,16.23
2023-03-26T07:54:31.438Z,14.93
2023-03-26T07:57:36.026Z,14.38
2023-03-26T08:00:45.403Z,13.48
2023-03-26T08:03:55.886Z,13.48
2023-03-26T08:07:07.205Z,16.65
2023-03-26T08:10:15.067Z,19.27
2023-03-26T08:13:22.341Z,20.56
2023-03-26T08:17:02.483Z,22.19
2023-03-26T08:20:34.998Z,26.20
2023-03-26T08:24:22.222Z,26.16
2023-03-26T08:27:41.449Z,24.73
2023-03-26T08:30:44.530Z,27.49
2023-03-26T08:33:46.215Z,28.11
2023-03-26T08:36:47.868Z,27.39
2023-03-26T08:39:49.496Z,25.39
2023-03-26T08:43:23.452Z,26.09
2023-03-26T08:46:34.245Z,26.41
2023-03-26T08:50:13.674Z,28.49
2023-03-26T08:53:43.205Z,28.54
2023-03-26T08:57:03.101Z,24.02
2023-03-26T09:00:43.368Z,21.92
2023-03-26T09:04:17.794Z,21.20
2023-03-26T09:07:28.268Z,19.98
2023-03-26T09:10:50.711Z,19.32
2023-03-26T09:14:16.916Z,19.57
2023-03-26T09:17:27.861Z,18.87
2023-03-26T09:20:50.495Z,17.64
2023-03-26T09:24:19.448Z,16.29
2023-03-26T09:27:37.681Z,15.34
2023-03-26T09:31:06.396Z,15.12
2023-03-26T09:34:16.779Z,14.65
2023-03-26T09:37:56.705Z,13.95
2023-03-26T09:41:13.947Z,13.64
2023-03-26T09:45:01.087Z,13.49
2023-03-26T09:48:38.090Z,14.48
2023-03-26T09:51:52.179Z,17.60
2023-03-26T09:55:09.049Z,19.43
2023-03-26T09:58:25.789Z,19.39
2023-03-26T10:01:32.511Z,22.15
2023-03-26T10:04:42.156Z,20.69
2023-03-26T10:08:03.404Z,19.32
2023-03-26T10:11:28.016Z,18.07
2023-03-26T10:14:44.292Z,17.42
2023-03-26T10:18:27.428Z,17.53
2023-03-26T10:21:46.247Z,16.75
2023-03-26T10:24:59.931Z,16.54
2023-03-26T10:28:37.082Z,16.47
2023-03-26T10:31:59.962Z,16.28
2023-03-26T10:35:20.539Z,15.86
2023-03-26T10:38:34.472Z,15.73
2023-03-26T10:41:54.204Z,16.55
2023-03-26T10:45:24.885Z,16.38
2023-03-26T10:49:01.054Z,16.20
2023-03-26T10:52:06.802Z,16.02
2023-03-26T10:55:15.699Z,16.35
2023-03-26T10:58:48.267Z,16.31
2023-03-26T11:02:10.159Z,15.87
2023-03-26T11:05:24.032Z,16.23
2023-03-26T11:08:39.000Z,16.57
2023-03-26T11:11:48.703Z,15.87
2023-03-26T11:15:01.602Z,15.44
2023-03-26T11:18:20.812Z,14.98
2023-03-26T11:21:43.336Z,14.71
2023-03-26T11:24:51.386Z,14.87
2023-03-26T11:28:16.039Z,14.67
2023-03-26T11:31:42.611Z,14.64
2023-03-26T11:35:04.320Z,14.95
2023-03-26T11:38:29.053Z,14.81
2023-03-26T11:41:33.869Z,14.60
2023-03-26T11:44:43.070Z,14.15
2023-03-26T11:47:55.844Z,14.05
2023-03-26T11:51:10.594Z,13.39
2023-03-26T11:54:13.715Z,12.89
2023-03-26T11:57:22.731Z,12.25
2023-03-26T12:00:27.774Z,11.72
2023-03-26T12:03:30.435Z,11.59
2023-03-26T12:06:33.205Z,11.50
2023-03-26T12:09:35.784Z,11.75
2023-03-26T12:12:40.929Z,12.74
2023-03-26T12:15:44.258Z,13.38
2023-03-26T12:18:57.563Z,13.63
2023-03-26T12:21:59.418Z,13.70
2023-03-26T12:25:03.633Z,13.60
2023-03-26T12:28:18.253Z,14.49
2023-03-26T12:31:20.278Z,14.88
2023-03-26T12:34:30.765Z,15.12
2023-03-26T12:37:44.724Z,15.48
2023-03-26T12:40:47.175Z,16.13
2023-03-26T12:44:50.585Z,16.29
2023-03-26T12:47:57.447Z,16.24
2023-03-26T12:50:42.811Z,16.54
2023-03-26T12:54:03.330Z,16.38
2023-03-26T12:57:26.517Z,16.68
2023-03-26T13:00:55.713Z,16.96
2023-03-26T13:04:07.128Z,16.24
2023-03-26T13:07:34.125Z,15.86
2023-03-26T13:11:00.545Z,16.43
2023-03-26T13:14:31.757Z,15.98
2023-03-26T13:18:03.761Z,15.07
2023-03-26T13:21:17.197Z,15.57
2023-03-26T13:24:50.706Z,15.67
2023-03-26T13:28:11.187Z,15.49
2023-03-26T13:31:33.756Z,14.91
2023-03-26T13:35:06.343Z,14.97
2023-03-26T13:38:18.538Z,15.12
2023-03-26T13:41:32.706Z,15.07
2023-03-26T13:45:05.728Z,14.97
2023-03-26T13:48:17.268Z,15.43
2023-03-26T13:51:28.979Z,16.02
2023-03-26T13:54:36.294Z,15.46
2023-03-26T13:57:53.536Z,14.43
2023-03-26T14:00:55.405Z,14.26
2023-03-26T14:04:25.962Z,14.33
2023-03-26T14:07:39.286Z,14.08
2023-03-26T14:10:46.169Z,14.72
2023-03-26T14:13:56.730Z,15.83
2023-03-26T14:17:05.886Z,15.89
2023-03-26T14:20:24.167Z,15.64
2023-03-26T14:23:31.151Z,15.87
2023-03-26T14:27:06.150Z,16.16
2023-03-26T14:30:17.508Z,15.68
2023-03-26T14:33:28.192Z,15.27
2023-03-26T14:36:51.244Z,15.26
2023-03-26T14:40:21.166Z,15.63
2023-03-26T14:43:53.410Z,16.38
2023-03-26T14:47:18.517Z,16.04
2023-03-26T14:50:47.264Z,15.99
2023-03-26T14:53:53.436Z,16.30
2023-03-26T14:57:10.845Z,16.78
2023-03-26T15:00:40.765Z,16.93
2023-03-26T15:04:14.885Z,17.02
2023-03-26T15:08:02.086Z,17.25
2023-03-26T15:11:40.446Z,18.47
2023-03-26T15:14:51.105Z,21.32
2023-03-26T15:18:28.576Z,22.46
2023-03-26T15:22:19.553Z,21.27
2023-03-26T15:26:00.288Z,18.57
2023-03-26T15:29:37.711Z,20.73
2023-03-26T15:32:52.809Z,20.74
2023-03-26T15:36:23.125Z,18.97
2023-03-26T15:39:59.226Z,18.05
2023-03-26T15:43:15.955Z,16.88
2023-03-26T15:46:40.624Z,16.02
2023-03-26T15:49:59.202Z,16.08
2023-03-26T15:53:36.868Z,16.14
2023-03-26T15:56:50.103Z,15.78
2023-03-26T16:00:12.756Z,15.62
2023-03-26T16:03:40.289Z,15.43
2023-03-26T16:06:56.157Z,15.27
2023-03-26T16:09:58.320Z,15.08
2023-03-26T16:13:38.258Z,15.03
2023-03-26T16:16:54.568Z,14.87
2023-03-26T16:20:23.445Z,14.80
2023-03-26T16:23:47.957Z,14.54
2023-03-26T16:27:09.297Z,14.45
2023-03-26T16:30:33.227Z,14.39
2023-03-26T16:33:39.778Z,14.26
2023-03-26T16:36:50.083Z,14.17
2023-03-26T16:39:52.687Z,13.97
2023-03-26T16:43:19.924Z,13.70
2023-03-26T16:46:56.833Z,13.49
2023-03-26T16:50:19.417Z,13.75
2023-03-26T16:53:33.198Z,13.59
2023-03-26T16:56:38.149Z,13.33
2023-03-26T17:00:05.824Z,13.20
2023-03-26T17:03:33.463Z,12.31
2023-03-26T17:07:14.319Z,12.47
2023-03-26T17:10:31.930Z,12.43
2023-03-26T17:14:01.555Z,12.41
2023-03-26T17:17:26.890Z,12.29
2023-03-26T17:20:44.506Z,12.07
2023-03-26T17:24:06.340Z,12.02
2023-03-26T17:27:58.990Z,11.85
2023-03-26T17:31:02.528Z,11.76
2023-03-26T17:34:40.288Z,11.67
2023-03-26T17:37:46.239Z,11.44
2023-03-26T17:41:00.650Z,11.34
2023-03-26T17:44:44.619Z,11.02
2023-03-26T17:48:10.930Z,11.06
2023-03-26T17:51:47.545Z,10.87
2023-03-26T17:54:56.654Z,10.81
2023-03-26T17:58:15.115Z,10.82
2023-03-26T18:01:32.463Z,10.73
2023-03-26T18:04:39.468Z,10.67
2023-03-26T18:08:14.002Z,10.74
2023-03-26T18:11:38.367Z,10.63
2023-03-26T18:14:59.394Z,10.62
2023-03-26T18:18:31.391Z,10.56
2023-03-26T18:21:38.826Z,10.39
2023-03-26T18:24:42.313Z,10.33
2023-03-26T18:27:45.289Z,10.18
2023-03-26T18:30:49.600Z,10.17
2023-03-26T18:33:59.190Z,10.18
2023-03-26T18:37:23.605Z,10.00
2023-03-26T18:40:33.390Z,10.04
2023-03-26T18:43:44.130Z,10.00
2023-03-26T18:46:48.654Z,10.44
2023-03-26T18:49:56.243Z,10.47
2023-03-26T18:53:01.140Z,10.57
2023-03-26T18:56:38.550Z,10.69
2023-03-26T18:59:45.960Z,10.39
2023-03-26T19:03:02.890Z,10.54
2023-03-26T19:06:10.390Z,10.68
2023-03-26T19:09:30.237Z,10.91
2023-03-26T19:12:35.830Z,10.96
2023-03-26T19:15:39.736Z,10.77
2023-03-26T19:18:44.309Z,10.76
2023-03-26T19:21:47.498Z,10.87
2023-03-26T19:24:55.928Z,10.95
2023-03-26T19:27:58.804Z,11.05
2023-03-26T19:31:32.284Z,11.17
2023-03-26T19:34:41.011Z,11.10
2023-03-26T19:37:52.167Z,11.13
2023-03-26T19:40:59.570Z,11.09
2023-03-26T19:44:07.180Z,11.03
2023-03-26T19:47:43.178Z,11.01
2023-03-26T19:51:05.390Z,11.01
2023-03-26T19:54:16.774Z,10.94
2023-03-26T19:57:19.706Z,10.94
2023-03-26T20:00:22.130Z,10.88
2023-03-26T20:03:30.986Z,10.90
2023-03-26T20:06:43.742Z,10.95
2023-03-26T20:09:54.274Z,11.02
2023-03-26T20:12:56.739Z,11.05
2023-03-26T20:16:13.726Z,11.05
2023-03-26T20:19:16.246Z,11.07
2023-03-26T20:22:23.681Z,11.01
2023-03-26T20:25:34.579Z,10.96
2023-03-26T20:28:47.286Z,10.93
2023-03-26T20:31:52.316Z,10.89
2023-03-26T20:34:55.281Z,10.90
2023-03-26T20:37:57.521Z,10.90
2023-03-26T20:40:59.688Z,11.02
2023-03-26T20:44:04.730Z,10.97
2023-03-26T20:47:07.995Z,10.98
2023-03-26T20:50:14.413Z,10.96
2023-03-26T20:53:16.854Z,10.94
2023-03-26T20:56:20.682Z,10.96
2023-03-26T20:59:26.608Z,10.95
2023-03-26T21:02:28.901Z,10.99
2023-03-26T21:05:30.731Z,10.99
2023-03-26T21:08:35.821Z,11.03
2023-03-26T21:12:01.821Z,11.02
2023-03-26T21:15:10.335Z,11.04
2023-03-26T21:18:18.974Z,11.04
2023-03-26T21:21:21.412Z,10.98
2023-03-26T21:24:29.643Z,10.91
2023-03-26T21:27:38.014Z,10.84
2023-03-26T21:30:40.052Z,10.75
2023-03-26T21:33:42.633Z,10.58
2023-03-26T21:36:44.569Z,10.37
2023-03-26T21:39:46.534Z,10.24
2023-03-26T21:42:54.307Z,10.15
2023-03-26T21:45:57.429Z,10.04
2023-03-26T21:48:59.448Z,10.02
2023-03-26T21:52:01.365Z,9.88
2023-03-26T21:55:05.324Z,9.77
2023-03-26T21:58:36.101Z,9.74
2023-03-26T22:01:37.702Z,9.71
2023-03-26T22:04:50.006Z,9.71
2023-03-26T22:08:00.504Z,9.85
2023-03-26T22:11:02.216Z,10.03
2023-03-26T22:14:05.025Z,10.09
2023-03-26T22:17:07.033Z,10.04
2023-03-26T22:20:13.827Z,10.35
2023-03-26T22:23:16.699Z,10.30
2023-03-26T22:26:26.101Z,10.01
2023-03-26T22:29:28.035Z,10.02
2023-03-26T22:32:32.882Z,9.94
2023-03-26T22:35:34.906Z,10.27
2023-03-26T22:38:36.757Z,9.81
2023-03-26T22:41:39.115Z,9.41
2023-03-26T22:44:40.966Z,9.31
2023-03-26T22:47:42.716Z,9.64
2023-03-26T22:50:44.371Z,9.67
2023-03-26T22:53:46.118Z,9.98
2023-03-26T22:56:48.198Z,9.74
2023-03-26T22:59:50.036Z,9.45
2023-03-26T23:02:52.084Z,9.30
2023-03-26T23:05:58.770Z,9.47
2023-03-26T23:09:01.328Z,9.70
2023-03-26T23:12:04.369Z,9.59
2023-03-26T23:15:06.643Z,9.48
2023-03-26T23:18:08.354Z,9.24
2023-03-26T23:21:28.045Z,9.35
2023-03-26T23:24:30.150Z,9.17
2023-03-26T23:27:32.993Z,9.16
2023-03-26T23:30:35.710Z,9.18
2023-03-26T23:33:39.329Z,8.96
2023-03-26T23:36:42.337Z,8.85
2023-03-26T23:39:46.738Z,8.76
2023-03-26T23:42:49.606Z,8.69
2023-03-26T23:45:52.283Z,8.75
2023-03-26T23:48:55.094Z,8.72
2023-03-26T23:51:56.828Z,8.53
2023-03-26T23:54:59.911Z,8.29
2023-03-26T23:58:02.648Z,8.35
